Allensville, Ohio
Current Conditions -  °F | °C
As of 5:35 AM on Wednesday 22 Oct 2014 (Local Time) from KUNI Reporting Station
Overcast Overcast  
Wind Chill: 42°   Ceiling: 3300
Heat Index: 46°   Visibility: 10mi
Dew Point: 41°   Wind: 7mph
Humidity: 85%   Direction: 320°NW
Pressure: 30.14"   Gusts: NA
Location:  39.2719°N, 82.4596°W
Report Text: KUNI 220935Z AUTO 32006KT 10SM SCT012 OVC033 08/05 A3014 RMK AO2 LTG DSNT E T00750051
Loading
Personal Weather Stations






























Interactive Weather Map New forecast layout! Learn more

10-Day Weather Forecast

Advertisements
Track Severe Weather on mobile